Hlavní strana
METAR-TAF:

METAR-TAF

Letiště :

Lima, Ohio, Spojené státy americké

zeměpisná šířka: 40-42-29N, zeměpisná délka: 084-01-17W, výška: 297 m

Aktuální stav počasí

Zpráva byla vytvořena před 24 minutami, v 23:10 UTC
Severoseverozápadní vítr 15 kt s nárazy do 26 kt
Teplota 0°C
Vlhkost vzduchu 86%
Tlak 1007 hPa
Viditelnost: 2.4 km
Polojasno ve výšce 900 ft
Zataženo ve výšce 1600 ft
slabé sněžení, kouřmo

METAR: KAOH 302310Z AUTO 34015G26KT 1 1/2SM -SN BR SCT009 OVC016 00/M02 A2974 RMK AO2 PK WND 34026/2306 P0000 T00001017

Čas: 18:34 (23:34 UTC)


TAF: chybějící

Stav a předpovědi počasí z více než 4 000 letišť (zprávy METAR a TAF).

Červené a žluté tečky na mapě představují dostupné meteorologické stanice.

Když kurzor umístíte na tečku, zobrazí se název stanice.

Pak kliknutím zobrazíte stav a předpověď počasí.

Chcete-li změnit mapu, kliknutím na zelené tlačítko se znaménkem +mapu přiblížíte, kliknutím na zelené tlačítko se znaménkem – mapu oddálíte a kliknutím na zelené šipky přejdete na sousední mapy.


METAR-TAF: